Airfield :
LOGIN :

Register | Disclaimer

   EN    FR    IT 

 










Legend :    VFR   Marginal VFR   IFR   Intensive IFR   Very Intensive IFR
Visi :
Ceiling :
>= 8 km
>= 3000ft
5 to 8 km
1000 to 3000 ft
1500m to 5 km
500 to 1000 ft
800 to 1500m
200 to 500 ft
< 800m
< 200 ft
Symbols :   Thunderstorms  Fog  Heavy snow  Heavy precipitations  Wind > 20 kt
SIGMETs :     Misc.  Thunderstorms  Icing  Turbulence  Mountain Waves  Volcanic Ashes







- Airport Elevation : 34 ft
- IATA code : BLK
- Download approach charts


EGNH - Blackpool

CURRENT METAR :
  • 231320Z 31016KT 9999 FEW015CB SCT024 13/06 Q1022 WS RWY10

EXPIRED METARs :
  • 231250Z 32017KT 9999 SCT030 13/06 Q1021 WS RWY10
  • 231220Z 31014KT 9999 SCT028 13/06 Q1021 WS RWY10
  • 231150Z 32014KT 290V350 9999 SCT028 13/06 Q1021 WS RWY10
  • 231050Z 34012KT 9999 FEW026 SCT031 12/07 Q1020 WS RWY10

TAF TAF EGNH
Valid from the 23 at 12:00 until the 23 at 20:00 UTC


231058Z 2312/2320 33012KT 9999 SCT030
PROB40
TEMPO 2312/2320 33015G25KT 7000 SHRA
ATIS : +44 1253 343 434 (x8315)
No reported NOTAMs for that airfield.
1 SIGMET reported for the London FIR (EGTT) :
 
Severe turbulence
EGTT SIGMET 03 VALID 231330/231630 EGRR
EGTT LONDON FIR SEV TURB FCST WI N5100 E00128 - N5040 E00128 - N5000 W00014 - N5031 W00005 - N5102 E00122 - N5130 E00200 - N5107 E00201 - N5100 E00128 SFC/FL060 MOV E 30KT WKN=



MET'MAP, your aeronautical weather chart ! - Copyright ORBIFLY December 2007 - Disclaimer

ORBIFLY MET'MAP TEAM :

Programming & Development : Alexandra Zaïnal
Concept & Development : Baudouin d'Aumeries
Co-Development & Prog : Marc-Olivier Méhu
Technical & hardware support : Manuel Goepfert

Contact : metmap@orbifly.com




SOURCES & CREDITS :

   NOAA